Terminal Aerodrome Forecast
Issued by NWS

Home | Current Version | Previous Version | Text Only | Print | Product List | Glossary On
Versions: 1 2 3 4 5 6 7 8 9 10 11 12 13 14 15 16 17 18
000
FTUS46 KMTR 231200 AAA
TAFOAK
TAF AMD
KOAK 231209Z 2312/2418 24010KT P6SM FEW009 OVC012
      TEMPO 2312/2315 -DZ BKN008
     FM231900 25010KT P6SM FEW015 BKN020
     FM232100 27012KT P6SM BKN025
     FM232300 27015G20KT P6SM BKN030
     FM240400 26010KT P6SM BKN015
     FM241000 26010KT P6SM OVC009=

USA.gov is the U.S. government's official web portal to all federal, state and local government web resources and services.